Lake Fork, ID

5:59 PM MDT on September 02, 2014 (GMT -0600)
McCall | Change Station
CLOSE
Current Station
Airport
Location: McCall,
Elevation: 5020 ft
Nearby Weather Stations

Elev 5020 ft 44.89 °N, 116.10 °W | Updated 8 minutes ago

Clear
Clear
73 °F
Feels Like 73 °F
N
14
Wind Variable Wind from South

Today
High -- | Low -- °F
--% Chance of Precip.
Yesterday
High -- | Low -- °F
Precip. -- in
7:07 AM 8:19 PM
First Quarter, 56% visible
Pressure 29.79 in
Visibility 10.0 miles
Clouds Clear
Dew Point 28 °F
Humidity 19%
Rainfall 0.00 in
Snow Depth 0 in , 0 in
UV 2 out of 12
Pollen 7.60 out of 12
Air Quality Not available.
Flu Activity Not available.
METAR KMYL 022351Z AUTO 18012KT 10SM CLR 23/M02 A2987 RMK AO2 SLP086 T02281022 10239 20183 56018

More Conditions Fewer Conditions

Pressure 29.79 in
Visibility 10.0 miles
Clouds Clear
Dew Point 28 °F
Humidity 19%
Rainfall 0.00 in
Snow Depth 0 in , 0 in
UV 2 out of 12
Pollen 7.60 out of 12
Air Quality Not available.
Flu Activity Not available.
METAR KMYL 022351Z AUTO 18012KT 10SM CLR 23/M02 A2987 RMK AO2 SLP086 T02281022 10239 20183 56018

More Conditions Fewer Conditions

10-Day Weather Forecast

Almanac

Astronomy

Sep. 02, 2014 Rise Set
Actual Time 7:07 AM MDT 8:19 PM MDT
Civil Twilight 6:37 AM MDT 8:49 PM MDT
Nautical Twilight 6:01 AM MDT 9:25 PM MDT
Astronomical Twilight 5:23 AM MDT 10:03 PM MDT
Moon 3:14 PM MDT 12:08 AM MDT
Length of Visible Light 14h 11m
Length of Day
13h 11m
Tomorrow will be 3m 3s shorter.
First Quarter, 56% of the Moon is Illuminated
Today
First Quarter
Sep 8
Full
Sep 15
Last Quarter
Sep 24
New
Oct 1
First Quarter

Today's Extremes

State Highs State Lows

Community

WunderPhotos

Upload Photos

1,749,799 photos uploaded!

Nearby

Snow Depth

Station Depth Elevation
Bear Basin 0 in 5350 ft
Brundage Reservoir 0 in 6300 ft
Big Creek Summit 0 in 6580 ft
Deadwood Summit 0 in 6860 ft
Van Wyck 0 in 4920 ft

Earthquake Activity

City Distance Mag. Time & Date
No recent earthquake activity has been reported nearby.
Minimum magnitude displayed is 2.5.

Coastal Water Temperatures

Place Temperature
No Stations Reporting

Nearby Weather Stations